KHFD/HFD METAR and TAF weather

Enter ICAO airport designator
Station Type Date Time Source
KHFD METAR 2019/12/08 18:53 UTC NOAA

KHFD 081853Z 18008KT 10SM CLR 01/M10 A3045 RMK AO2 SLP310 T00111100


Station Type Date Time Source
KHFD Decoded METAR 2019/12/08 18:53 UTC NOAA

HARTFORD-BRAINARD AIRPORT, CT, United States (KHFD) 41-44N 072-39W 4M
Dec 08, 2019 - 01:53 PM EST / 2019.12.08 1853 UTC
Wind: from the S (180 degrees) at 9 MPH (8 KT):0
Visibility: 10 mile(s):0
Sky conditions: clear
Temperature: 34.0 F (1.1 C)
Windchill: 26 F (-3 C):1
Dew Point: 14.0 F (-10.0 C)
Relative Humidity: 43%
Pressure (altimeter): 30.45 in. Hg (1031 hPa)
ob: KHFD 081853Z 18008KT 10SM CLR 01/M10 A3045 RMK AO2 SLP310 T00111100
cycle: 19

Station Type Date Time Source
KHFD TAF UTC NOAA

Error!

Example: see airport list